Time;durP1;ratioP1;P1;durP2;ratioP2;P2;SDS_P1;SDS_P2;PMS_P1;PMS_P2;Temp;Humidity;BMP_temperature;BMP_pressure;BME280_temperature;BME280_humidity;BME280_pressure;Samples;Min_cycle;Max_cycle;Signal;HPM_P1;HPM_P2
2022/06/20 00:02:21;;;;;;;9.25;3.13;;;;;;;;;;10459235;28;20209;-73
2022/06/20 00:07:22;;;;;;;7.88;3.08;;;;;;;;;;10466805;28;20768;-75
2022/06/20 00:12:26;;;;;;;9.38;3.45;;;;;;;;;;10478453;28;20189;-73
2022/06/20 00:17:27;;;;;;;8.32;3.20;;;;;;;;;;10471025;28;20217;-73
2022/06/20 00:22:28;;;;;;;4.20;3.60;;;;;;;;;;10473618;28;20186;-73
2022/06/20 00:27:29;;;;;;;11.38;4.40;;;;;;;;;;10472508;28;20308;-73
2022/06/20 00:32:30;;;;;;;5.82;3.13;;;;;;;;;;10476264;28;20281;-73
2022/06/20 00:37:31;;;;;;;10.43;4.25;;;;;;;;;;10468641;28;20209;-72
2022/06/20 00:42:32;;;;;;;5.45;4.30;;;;;;;;;;10474411;28;20190;-73
2022/06/20 00:47:34;;;;;;;8.73;4.28;;;;;;;;;;10476422;28;20241;-72
2022/06/20 00:52:38;;;;;;;10.18;4.57;;;;;;;;;;10478206;28;20174;-73
2022/06/20 00:57:45;;;;;;;9.98;4.43;;;;;;;;;;10469399;28;20768;-73
2022/06/20 01:02:48;;;;;;;9.48;4.60;;;;;;;;;;10466444;28;20252;-72
2022/06/20 01:07:57;;;;;;;10.77;4.38;;;;;;;;;;10469120;28;20305;-75
2022/06/20 01:13:02;;;;;;;8.65;4.57;;;;;;;;;;10467433;28;20396;-73
2022/06/20 01:18:04;;;;;;;7.03;3.97;;;;;;;;;;10467940;28;20198;-72
2022/06/20 01:23:12;;;;;;;7.65;4.72;;;;;;;;;;10469401;28;20186;-72
2022/06/20 01:28:16;;;;;;;8.15;5.10;;;;;;;;;;10479138;28;20234;-73
2022/06/20 01:33:19;;;;;;;8.13;5.63;;;;;;;;;;10476533;28;20214;-73
2022/06/20 01:38:20;;;;;;;8.68;5.43;;;;;;;;;;10471115;28;20236;-72
2022/06/20 01:43:22;;;;;;;13.10;6.03;;;;;;;;;;10469910;28;20190;-72
2022/06/20 01:48:23;;;;;;;10.18;4.93;;;;;;;;;;10473673;28;20213;-73
2022/06/20 01:53:29;;;;;;;6.43;4.57;;;;;;;;;;10468684;28;20731;-72
2022/06/20 01:58:32;;;;;;;6.00;5.38;;;;;;;;;;10460078;28;21176;-72
2022/06/20 02:03:34;;;;;;;9.68;5.40;;;;;;;;;;10474351;28;20300;-72
2022/06/20 02:08:37;;;;;;;9.05;6.15;;;;;;;;;;10462122;28;20734;-73
2022/06/20 02:13:43;;;;;;;12.43;6.15;;;;;;;;;;10469842;28;20263;-72
2022/06/20 02:18:47;;;;;;;9.85;5.20;;;;;;;;;;10470644;28;20705;-72
2022/06/20 02:23:51;;;;;;;5.57;5.15;;;;;;;;;;10475095;28;20185;-72
2022/06/20 02:28:56;;;;;;;11.25;4.95;;;;;;;;;;10468706;28;20290;-72
2022/06/20 02:33:57;;;;;;;12.98;5.65;;;;;;;;;;10471769;28;20211;-72
2022/06/20 02:38:59;;;;;;;11.35;6.25;;;;;;;;;;10473876;28;20263;-72
2022/06/20 02:44:02;;;;;;;8.95;4.57;;;;;;;;;;10472465;28;20235;-72
2022/06/20 02:49:04;;;;;;;14.15;6.00;;;;;;;;;;10470722;28;20587;-73
2022/06/20 02:54:06;;;;;;;11.90;6.07;;;;;;;;;;10473189;28;20308;-73
2022/06/20 02:59:13;;;;;;;10.77;4.65;;;;;;;;;;10462531;28;20788;-73
2022/06/20 03:04:14;;;;;;;7.00;5.75;;;;;;;;;;10474495;28;20729;-73
2022/06/20 03:09:18;;;;;;;9.30;6.25;;;;;;;;;;10473111;28;20202;-73
2022/06/20 03:14:21;;;;;;;15.18;6.20;;;;;;;;;;10468044;28;20205;-72
2022/06/20 03:19:27;;;;;;;8.25;5.88;;;;;;;;;;10482904;28;20206;-74
2022/06/20 03:24:28;;;;;;;11.90;7.40;;;;;;;;;;10460600;28;20244;-74
2022/06/20 03:29:30;;;;;;;11.20;6.80;;;;;;;;;;10461655;28;20727;-74
2022/06/20 03:34:31;;;;;;;13.68;7.40;;;;;;;;;;10467089;28;20210;-74
2022/06/20 03:39:34;;;;;;;10.38;6.45;;;;;;;;;;10465936;28;20201;-74
2022/06/20 03:44:37;;;;;;;11.00;7.20;;;;;;;;;;10461005;28;20241;-74
2022/06/20 03:49:45;;;;;;;15.82;7.22;;;;;;;;;;10480499;28;20613;-74
2022/06/20 03:54:58;;;;;;;18.67;7.63;;;;;;;;;;10476604;28;20186;-73
2022/06/20 04:00:05;;;;;;;14.90;7.95;;;;;;;;;;10481773;28;20488;-74
2022/06/20 04:05:18;;;;;;;15.25;9.57;;;;;;;;;;10473181;28;21153;-74
2022/06/20 04:16:11;;;;;;;27.92;13.95;;;;;;;;;;10462959;28;20206;-75
2022/06/20 04:21:42;;;;;;;27.17;13.40;;;;;;;;;;10448954;28;20200;-77
2022/06/20 04:26:49;;;;;;;29.25;14.02;;;;;;;;;;10458760;28;20213;-77
2022/06/20 04:31:53;;;;;;;36.53;14.50;;;;;;;;;;10466817;28;20222;-76
2022/06/20 04:36:57;;;;;;;28.15;13.75;;;;;;;;;;10464531;28;20359;-76
2022/06/20 04:42:01;;;;;;;24.20;14.05;;;;;;;;;;10459119;28;20178;-76
2022/06/20 04:47:05;;;;;;;15.55;12.13;;;;;;;;;;10458698;28;20898;-75
2022/06/20 04:52:09;;;;;;;28.48;13.10;;;;;;;;;;10460618;28;20190;-75
2022/06/20 04:57:12;;;;;;;21.05;11.23;;;;;;;;;;10460376;28;20198;-76
2022/06/20 05:02:16;;;;;;;17.65;11.23;;;;;;;;;;10453034;28;20271;-76
2022/06/20 05:07:21;;;;;;;24.10;13.63;;;;;;;;;;10434213;28;20213;-76
2022/06/20 05:12:25;;;;;;;22.88;13.32;;;;;;;;;;10447726;28;20178;-75
2022/06/20 05:17:28;;;;;;;19.52;13.60;;;;;;;;;;10456995;28;20236;-74
2022/06/20 05:22:32;;;;;;;22.13;14.32;;;;;;;;;;10474468;28;20183;-74
2022/06/20 05:27:40;;;;;;;20.92;13.63;;;;;;;;;;10479523;28;20226;-75
2022/06/20 05:32:46;;;;;;;19.48;14.40;;;;;;;;;;10480754;28;20226;-74
2022/06/20 05:37:48;;;;;;;18.30;13.02;;;;;;;;;;10440926;28;20205;-74
2022/06/20 05:42:49;;;;;;;15.88;12.18;;;;;;;;;;10467063;28;20212;-74
2022/06/20 05:47:52;;;;;;;14.85;10.82;;;;;;;;;;10444712;28;20213;-74
2022/06/20 05:52:54;;;;;;;18.25;12.82;;;;;;;;;;10454481;28;20189;-74
2022/06/20 05:57:56;;;;;;;21.38;14.43;;;;;;;;;;10457378;28;20255;-74
2022/06/20 06:03:00;;;;;;;15.48;12.07;;;;;;;;;;10462101;28;20224;-74
2022/06/20 06:08:15;;;;;;;14.52;11.38;;;;;;;;;;10474608;28;20245;-75
2022/06/20 06:13:40;;;;;;;15.13;12.07;;;;;;;;;;10471565;28;20186;-75
2022/06/20 06:19:01;;;;;;;19.10;12.70;;;;;;;;;;10471298;28;20205;-75
2022/06/20 06:24:04;;;;;;;9.98;9.07;;;;;;;;;;10457025;28;20186;-74
2022/06/20 06:29:09;;;;;;;10.43;9.35;;;;;;;;;;10470730;28;20222;-76
2022/06/20 06:34:11;;;;;;;10.80;9.43;;;;;;;;;;10468062;28;20238;-75
2022/06/20 06:39:16;;;;;;;13.60;12.32;;;;;;;;;;10468166;28;20202;-75
2022/06/20 06:44:18;;;;;;;12.05;9.43;;;;;;;;;;10470375;28;20292;-75
2022/06/20 06:49:23;;;;;;;11.90;10.23;;;;;;;;;;10463528;28;20221;-74
2022/06/20 06:54:36;;;;;;;10.43;9.50;;;;;;;;;;10464738;28;20565;-73
2022/06/20 06:59:45;;;;;;;9.77;9.00;;;;;;;;;;10442198;28;20212;-74
2022/06/20 07:04:55;;;;;;;7.60;7.13;;;;;;;;;;10447246;28;20717;-74
2022/06/20 07:09:57;;;;;;;6.32;5.93;;;;;;;;;;10470129;28;20210;-74
2022/06/20 07:15:01;;;;;;;8.52;7.78;;;;;;;;;;10470727;28;20186;-74
2022/06/20 07:20:03;;;;;;;7.95;7.35;;;;;;;;;;10470734;28;20246;-73
2022/06/20 07:25:04;;;;;;;7.13;6.68;;;;;;;;;;10467694;28;20553;-74
2022/06/20 07:30:05;;;;;;;8.85;7.03;;;;;;;;;;10472254;28;20248;-73
2022/06/20 07:35:10;;;;;;;9.23;7.38;;;;;;;;;;10446467;28;20300;-73
2022/06/20 07:40:17;;;;;;;9.95;8.00;;;;;;;;;;10465590;28;20275;-73
2022/06/20 07:45:20;;;;;;;9.23;8.57;;;;;;;;;;10465484;28;20190;-74
2022/06/20 07:50:42;;;;;;;9.23;8.30;;;;;;;;;;10462370;28;20211;-73
2022/06/20 07:55:51;;;;;;;8.35;7.55;;;;;;;;;;10446692;28;20213;-74
2022/06/20 08:00:53;;;;;;;7.40;6.88;;;;;;;;;;10458535;28;20329;-74
2022/06/20 08:06:00;;;;;;;5.40;5.10;;;;;;;;;;10462575;28;20209;-73
2022/06/20 08:11:06;;;;;;;4.65;4.38;;;;;;;;;;10457550;28;20239;-74
2022/06/20 08:16:12;;;;;;;4.78;4.57;;;;;;;;;;10464110;28;20237;-74
2022/06/20 08:21:18;;;;;;;3.50;3.40;;;;;;;;;;10464344;28;20174;-75
2022/06/20 08:26:26;;;;;;;4.00;3.80;;;;;;;;;;10464444;28;20225;-75
2022/06/20 08:31:32;;;;;;;2.58;2.47;;;;;;;;;;10462054;28;20209;-74
2022/06/20 08:36:42;;;;;;;3.55;3.35;;;;;;;;;;10465465;28;20585;-72
2022/06/20 08:41:43;;;;;;;4.07;3.97;;;;;;;;;;10464353;28;21449;-73
2022/06/20 08:46:47;;;;;;;4.78;4.50;;;;;;;;;;10466584;28;20195;-74
2022/06/20 08:52:06;;;;;;;6.28;5.97;;;;;;;;;;10467404;28;20259;-75
2022/06/20 08:57:11;;;;;;;8.05;7.28;;;;;;;;;;10466439;28;20248;-74
2022/06/20 09:02:28;;;;;;;9.52;8.50;;;;;;;;;;10464410;28;20306;-73
2022/06/20 09:07:49;;;;;;;9.02;8.25;;;;;;;;;;10467825;28;20806;-72
2022/06/20 09:12:50;;;;;;;9.35;8.45;;;;;;;;;;10464909;28;20182;-74
2022/06/20 09:17:54;;;;;;;10.05;9.13;;;;;;;;;;10463449;28;20978;-74
2022/06/20 09:23:11;;;;;;;11.77;10.55;;;;;;;;;;10482002;28;20297;-74
2022/06/20 09:28:22;;;;;;;13.95;12.00;;;;;;;;;;10465074;28;20221;-75
2022/06/20 09:33:35;;;;;;;13.57;11.05;;;;;;;;;;10462424;28;20206;-75
2022/06/20 09:38:53;;;;;;;16.35;11.05;;;;;;;;;;10463288;28;20203;-73
2022/06/20 09:44:10;;;;;;;9.98;8.60;;;;;;;;;;10464259;28;20715;-73
2022/06/20 09:49:19;;;;;;;10.07;9.27;;;;;;;;;;10464608;28;20659;-72
2022/06/20 09:54:43;;;;;;;6.57;5.70;;;;;;;;;;10466136;28;20174;-71
2022/06/20 10:00:04;;;;;;;5.10;4.68;;;;;;;;;;10466386;28;20228;-73
2022/06/20 10:05:22;;;;;;;8.85;5.53;;;;;;;;;;10467111;28;20245;-73
2022/06/20 10:10:36;;;;;;;3.63;3.33;;;;;;;;;;10466643;28;20210;-72
2022/06/20 10:15:43;;;;;;;4.13;3.80;;;;;;;;;;10469136;28;20297;-72
2022/06/20 10:20:56;;;;;;;3.85;3.42;;;;;;;;;;10469226;28;20178;-71
2022/06/20 10:26:11;;;;;;;3.67;2.83;;;;;;;;;;10466925;28;20702;-72
2022/06/20 10:31:31;;;;;;;3.15;2.95;;;;;;;;;;10473090;28;20302;-71
2022/06/20 10:36:40;;;;;;;4.47;4.32;;;;;;;;;;10465296;28;20213;-71
2022/06/20 10:41:58;;;;;;;5.78;4.47;;;;;;;;;;10470445;28;20202;-71
2022/06/20 10:47:13;;;;;;;5.88;5.20;;;;;;;;;;10467758;28;20599;-72
2022/06/20 10:52:20;;;;;;;6.75;6.22;;;;;;;;;;10460109;28;20221;-73
2022/06/20 10:57:30;;;;;;;7.60;7.00;;;;;;;;;;10469200;28;20223;-72
2022/06/20 11:02:34;;;;;;;9.23;6.38;;;;;;;;;;10464786;28;20242;-72
2022/06/20 11:07:54;;;;;;;8.07;7.38;;;;;;;;;;10466514;28;20203;-72
2022/06/20 11:13:01;;;;;;;6.88;5.68;;;;;;;;;;10469326;28;20193;-74
2022/06/20 11:18:21;;;;;;;8.52;5.45;;;;;;;;;;10462236;28;20206;-72
2022/06/20 11:23:49;;;;;;;10.98;5.32;;;;;;;;;;10458448;28;20174;-72
2022/06/20 11:28:50;;;;;;;6.85;5.38;;;;;;;;;;10450712;28;20218;-72
2022/06/20 11:34:04;;;;;;;13.65;4.55;;;;;;;;;;10460880;28;20209;-71
2022/06/20 11:39:08;;;;;;;6.72;4.88;;;;;;;;;;10459517;28;20635;-72
2022/06/20 11:44:30;;;;;;;7.00;4.20;;;;;;;;;;10466053;28;20178;-72
2022/06/20 11:49:30;;;;;;;6.20;3.10;;;;;;;;;;10456822;28;20225;-73
2022/06/20 11:54:35;;;;;;;7.85;3.50;;;;;;;;;;10461362;28;20730;-72
2022/06/20 11:59:48;;;;;;;7.68;4.18;;;;;;;;;;10466997;28;20252;-72
2022/06/20 12:05:02;;;;;;;8.65;4.13;;;;;;;;;;10461088;28;20218;-73
2022/06/20 12:10:15;;;;;;;7.45;3.78;;;;;;;;;;10465934;28;20221;-71
2022/06/20 12:15:30;;;;;;;12.30;4.22;;;;;;;;;;10457832;28;20178;-72
2022/06/20 12:26:07;;;;;;;8.85;3.50;;;;;;;;;;10487561;28;20248;-72
2022/06/20 12:31:08;;;;;;;9.70;3.50;;;;;;;;;;10465126;28;20207;-71
2022/06/20 12:36:18;;;;;;;8.27;3.70;;;;;;;;;;10467241;28;20213;-72
2022/06/20 12:41:21;;;;;;;11.98;3.55;;;;;;;;;;10468399;28;20174;-72
2022/06/20 12:46:28;;;;;;;5.13;3.72;;;;;;;;;;10471036;28;20194;-72
2022/06/20 12:51:29;;;;;;;6.93;3.78;;;;;;;;;;10466553;28;20209;-73
2022/06/20 12:56:37;;;;;;;8.13;4.05;;;;;;;;;;10468898;28;20222;-74
2022/06/20 13:01:38;;;;;;;6.05;3.20;;;;;;;;;;10467173;28;20218;-74
2022/06/20 13:06:58;;;;;;;5.15;3.97;;;;;;;;;;10460436;28;20708;-74
2022/06/20 13:12:07;;;;;;;10.05;3.63;;;;;;;;;;10463602;28;20178;-73
2022/06/20 13:17:21;;;;;;;8.10;3.00;;;;;;;;;;10463967;28;20195;-74
2022/06/20 13:22:30;;;;;;;5.75;3.40;;;;;;;;;;10466720;28;20182;-74
2022/06/20 13:27:36;;;;;;;7.18;2.75;;;;;;;;;;10467149;28;20811;-74
2022/06/20 13:32:41;;;;;;;4.85;2.55;;;;;;;;;;10461457;28;20702;-74
2022/06/20 13:37:42;;;;;;;5.53;2.90;;;;;;;;;;10466523;28;20210;-74
2022/06/20 13:42:46;;;;;;;9.68;3.03;;;;;;;;;;10461003;28;20186;-74
2022/06/20 13:47:55;;;;;;;9.35;3.83;;;;;;;;;;10459846;28;20886;-74
2022/06/20 13:52:58;;;;;;;3.22;2.90;;;;;;;;;;10464360;28;20950;-73
2022/06/20 13:58:06;;;;;;;3.40;2.90;;;;;;;;;;10464521;28;20690;-75
2022/06/20 14:03:07;;;;;;;3.55;2.97;;;;;;;;;;10460695;28;20647;-74
2022/06/20 14:08:08;;;;;;;2.72;2.22;;;;;;;;;;10464047;28;20301;-74
2022/06/20 14:13:19;;;;;;;3.88;2.92;;;;;;;;;;10466086;28;20256;-75
2022/06/20 14:18:23;;;;;;;7.22;3.90;;;;;;;;;;10455760;28;20213;-74
2022/06/20 14:23:25;;;;;;;4.38;4.10;;;;;;;;;;10461233;28;20651;-74
2022/06/20 14:28:28;;;;;;;3.75;3.15;;;;;;;;;;10462847;28;20337;-75
2022/06/20 14:33:34;;;;;;;6.20;3.13;;;;;;;;;;10443030;28;21065;-74
2022/06/20 14:38:42;;;;;;;5.88;2.58;;;;;;;;;;10446249;28;20271;-74
2022/06/20 14:43:45;;;;;;;5.80;2.58;;;;;;;;;;10463015;28;20186;-74
2022/06/20 14:48:49;;;;;;;4.75;2.40;;;;;;;;;;10450349;28;20213;-74
2022/06/20 14:54:12;;;;;;;2.60;1.90;;;;;;;;;;10451105;28;20283;-76
2022/06/20 14:59:19;;;;;;;6.20;2.35;;;;;;;;;;10452503;28;20230;-74
2022/06/20 15:04:32;;;;;;;2.45;1.48;;;;;;;;;;10446665;28;20221;-73
2022/06/20 15:09:35;;;;;;;1.85;1.77;;;;;;;;;;10450774;28;20674;-75
2022/06/20 15:15:02;;;;;;;3.85;2.05;;;;;;;;;;10449694;28;20201;-74
2022/06/20 15:20:13;;;;;;;2.05;1.63;;;;;;;;;;10444828;28;20765;-74
2022/06/20 15:25:18;;;;;;;4.20;1.67;;;;;;;;;;10442548;28;20206;-74
2022/06/20 15:30:22;;;;;;;2.00;1.38;;;;;;;;;;10454272;28;20271;-74
2022/06/20 15:35:51;;;;;;;4.50;1.65;;;;;;;;;;10464176;28;20396;-74
2022/06/20 15:40:58;;;;;;;1.42;1.08;;;;;;;;;;10461746;28;20214;-74
2022/06/20 15:46:02;;;;;;;1.67;0.82;;;;;;;;;;10458878;28;20255;-75
2022/06/20 15:51:08;;;;;;;3.03;1.10;;;;;;;;;;10452731;28;20246;-73
2022/06/20 15:56:27;;;;;;;0.80;0.80;;;;;;;;;;10453279;28;20386;-73
2022/06/20 16:01:28;;;;;;;1.65;0.68;;;;;;;;;;10435268;28;20213;-74
2022/06/20 16:06:48;;;;;;;1.50;0.90;;;;;;;;;;10451404;28;20198;-73
2022/06/20 16:11:51;;;;;;;1.55;0.80;;;;;;;;;;10447578;28;20191;-74
2022/06/20 16:16:53;;;;;;;0.95;0.85;;;;;;;;;;10454488;28;20702;-73
2022/06/20 16:22:01;;;;;;;2.90;1.08;;;;;;;;;;10454991;28;20530;-74
2022/06/20 16:27:02;;;;;;;1.77;1.00;;;;;;;;;;10458736;28;20218;-73
2022/06/20 16:32:15;;;;;;;2.30;1.05;;;;;;;;;;10458916;28;20210;-73
2022/06/20 16:37:27;;;;;;;2.72;0.90;;;;;;;;;;10460581;28;20704;-73
2022/06/20 16:42:48;;;;;;;5.28;1.13;;;;;;;;;;10457811;28;20796;-73
2022/06/20 16:47:58;;;;;;;0.98;0.98;;;;;;;;;;10460378;28;21075;-74
2022/06/20 16:53:11;;;;;;;3.75;1.15;;;;;;;;;;10467156;28;20273;-73
2022/06/20 16:58:21;;;;;;;1.95;0.95;;;;;;;;;;10459012;28;20224;-73
2022/06/20 17:03:27;;;;;;;2.10;0.90;;;;;;;;;;10459658;28;20218;-72
2022/06/20 17:08:35;;;;;;;2.10;1.10;;;;;;;;;;10447957;28;20214;-74
2022/06/20 17:13:48;;;;;;;2.97;0.77;;;;;;;;;;10458504;28;20178;-74
2022/06/20 17:18:49;;;;;;;1.70;0.75;;;;;;;;;;10450903;28;20212;-74
2022/06/20 17:24:01;;;;;;;2.67;0.77;;;;;;;;;;10443179;28;20716;-75
2022/06/20 17:29:25;;;;;;;1.58;0.50;;;;;;;;;;10442483;28;20229;-74
2022/06/20 17:34:31;;;;;;;0.55;0.55;;;;;;;;;;10442965;28;20291;-74
2022/06/20 17:39:44;;;;;;;2.05;0.70;;;;;;;;;;10442551;28;20207;-74
2022/06/20 17:44:49;;;;;;;1.85;0.70;;;;;;;;;;10421597;28;20182;-74
2022/06/20 17:49:56;;;;;;;3.20;0.75;;;;;;;;;;10448201;28;20655;-74
2022/06/20 17:55:03;;;;;;;1.13;0.68;;;;;;;;;;10450509;28;20190;-74
2022/06/20 18:00:11;;;;;;;1.73;0.60;;;;;;;;;;10459997;28;20716;-76
2022/06/20 18:05:17;;;;;;;2.33;0.70;;;;;;;;;;10446613;28;20283;-74
2022/06/20 18:10:22;;;;;;;1.60;0.68;;;;;;;;;;10444257;28;20224;-74
2022/06/20 18:15:23;;;;;;;1.92;0.80;;;;;;;;;;10451827;28;20181;-74
2022/06/20 18:20:29;;;;;;;2.25;0.60;;;;;;;;;;10453380;28;20178;-74
2022/06/20 18:25:43;;;;;;;1.55;0.60;;;;;;;;;;10452511;28;20292;-73
2022/06/20 18:30:52;;;;;;;1.02;0.60;;;;;;;;;;10452592;28;20229;-73
2022/06/20 18:35:53;;;;;;;1.20;0.57;;;;;;;;;;10461546;28;20703;-74
2022/06/20 18:40:59;;;;;;;2.40;0.60;;;;;;;;;;10463215;28;20189;-73
2022/06/20 18:46:11;;;;;;;4.40;0.55;;;;;;;;;;10463459;28;20190;-73
2022/06/20 18:51:18;;;;;;;2.47;0.60;;;;;;;;;;10432851;28;21019;-74
2022/06/20 18:56:25;;;;;;;0.75;0.75;;;;;;;;;;10426241;28;20282;-74
2022/06/20 19:01:40;;;;;;;3.42;0.82;;;;;;;;;;10442120;28;20222;-74
2022/06/20 19:06:56;;;;;;;2.00;0.60;;;;;;;;;;10450131;28;20351;-74
2022/06/20 19:12:09;;;;;;;2.50;0.60;;;;;;;;;;10449298;28;20192;-74
2022/06/20 19:17:14;;;;;;;3.75;0.90;;;;;;;;;;10456570;28;20267;-74
2022/06/20 19:22:21;;;;;;;3.42;1.27;;;;;;;;;;10451956;28;20546;-74
2022/06/20 19:27:23;;;;;;;2.60;0.77;;;;;;;;;;10460215;28;20275;-74
2022/06/20 19:32:27;;;;;;;2.25;0.63;;;;;;;;;;10458061;28;20320;-74
2022/06/20 19:37:30;;;;;;;1.95;0.90;;;;;;;;;;10446344;28;20260;-73
2022/06/20 19:42:34;;;;;;;1.20;0.80;;;;;;;;;;10459436;28;20182;-74
2022/06/20 19:47:35;;;;;;;1.27;0.90;;;;;;;;;;10445739;28;20202;-73
2022/06/20 19:52:39;;;;;;;1.45;0.75;;;;;;;;;;10444927;28;20182;-73
2022/06/20 19:57:59;;;;;;;0.90;0.90;;;;;;;;;;10457239;28;20339;-73
2022/06/20 20:03:09;;;;;;;0.80;0.80;;;;;;;;;;10461673;28;20214;-74
2022/06/20 20:08:12;;;;;;;2.45;0.80;;;;;;;;;;10451306;28;20300;-73
2022/06/20 20:13:15;;;;;;;2.00;1.00;;;;;;;;;;10449026;28;20609;-75
2022/06/20 20:18:18;;;;;;;1.30;0.90;;;;;;;;;;10450638;28;20221;-74
2022/06/20 20:23:19;;;;;;;1.75;0.80;;;;;;;;;;10444815;28;20182;-75
2022/06/20 20:28:23;;;;;;;2.45;1.20;;;;;;;;;;10435372;28;20886;-71
2022/06/20 20:33:53;;;;;;;1.50;0.88;;;;;;;;;;10452324;28;20214;-71
2022/06/20 20:38:58;;;;;;;2.47;0.98;;;;;;;;;;10443201;28;20302;-72
2022/06/20 20:44:16;;;;;;;0.85;0.70;;;;;;;;;;10461067;28;20188;-72
2022/06/20 20:49:20;;;;;;;1.92;0.80;;;;;;;;;;10466646;28;20752;-72
2022/06/20 20:54:23;;;;;;;3.40;0.93;;;;;;;;;;10467053;28;20725;-73
2022/06/20 20:59:33;;;;;;;1.10;1.10;;;;;;;;;;10462097;28;20212;-72
2022/06/20 21:04:36;;;;;;;1.70;0.98;;;;;;;;;;10437601;28;20206;-74
2022/06/20 21:09:52;;;;;;;3.35;1.10;;;;;;;;;;10464133;28;20298;-72
2022/06/20 21:14:58;;;;;;;1.00;1.00;;;;;;;;;;10462868;28;20182;-72
2022/06/20 21:20:10;;;;;;;1.08;1.08;;;;;;;;;;10461287;28;20283;-73
2022/06/20 21:25:12;;;;;;;1.15;1.15;;;;;;;;;;10455652;28;20186;-72
2022/06/20 21:30:15;;;;;;;2.10;0.88;;;;;;;;;;10460429;28;20593;-73
2022/06/20 21:35:18;;;;;;;1.67;1.15;;;;;;;;;;10468742;28;20310;-73
2022/06/20 21:40:20;;;;;;;0.95;0.95;;;;;;;;;;10462465;28;20746;-73
2022/06/20 21:45:21;;;;;;;4.22;1.30;;;;;;;;;;10476825;28;20690;-73
2022/06/20 21:50:23;;;;;;;1.10;1.10;;;;;;;;;;10465497;28;20205;-73
2022/06/20 21:55:24;;;;;;;3.22;1.45;;;;;;;;;;10469662;28;20180;-72
2022/06/20 22:00:25;;;;;;;2.80;1.40;;;;;;;;;;10449764;28;20185;-72
2022/06/20 22:05:28;;;;;;;1.60;1.50;;;;;;;;;;10466328;28;20205;-73
2022/06/20 22:10:31;;;;;;;2.92;1.63;;;;;;;;;;10456579;28;20247;-72
2022/06/20 22:15:34;;;;;;;4.53;1.58;;;;;;;;;;10466616;28;20676;-71
2022/06/20 22:20:40;;;;;;;3.65;1.48;;;;;;;;;;10471859;28;20181;-71
2022/06/20 22:25:43;;;;;;;5.13;1.58;;;;;;;;;;10472798;28;20281;-71
2022/06/20 22:30:48;;;;;;;3.92;1.70;;;;;;;;;;10471824;28;20264;-71
2022/06/20 22:35:50;;;;;;;2.13;1.88;;;;;;;;;;10476268;28;20210;-71
2022/06/20 22:40:53;;;;;;;2.15;1.52;;;;;;;;;;10469513;28;20235;-72
2022/06/20 22:45:54;;;;;;;4.38;1.55;;;;;;;;;;10471111;28;20249;-70
2022/06/20 22:50:56;;;;;;;3.40;1.98;;;;;;;;;;10465958;28;20206;-71
2022/06/20 22:56:02;;;;;;;6.35;2.30;;;;;;;;;;10467187;28;20228;-71
2022/06/20 23:01:21;;;;;;;2.13;1.80;;;;;;;;;;10472643;28;20286;-70
2022/06/20 23:06:24;;;;;;;6.07;1.98;;;;;;;;;;10469765;28;20967;-71
2022/06/20 23:11:26;;;;;;;3.08;1.88;;;;;;;;;;10460437;28;20206;-71
2022/06/20 23:21:48;;;;;;;5.68;2.58;;;;;;;;;;10473321;28;20579;-71
2022/06/20 23:26:49;;;;;;;4.47;2.00;;;;;;;;;;10470582;28;20248;-71
2022/06/20 23:31:52;;;;;;;4.63;2.80;;;;;;;;;;10468145;28;20217;-71
2022/06/20 23:36:53;;;;;;;2.75;2.55;;;;;;;;;;10471436;28;20202;-70
2022/06/20 23:41:54;;;;;;;2.85;2.60;;;;;;;;;;10471915;28;20235;-70
2022/06/20 23:46:56;;;;;;;5.20;2.88;;;;;;;;;;10470416;28;20212;-70
2022/06/20 23:51:57;;;;;;;3.40;2.75;;;;;;;;;;10461196;28;20267;-71
2022/06/20 23:56:58;;;;;;;2.78;2.58;;;;;;;;;;10463523;28;20252;-71
